sensor_id;sensor_type;location;lat;lon;timestamp;P1;durP1;ratioP1;P2;durP2;ratioP2
56927;SDS011;60850;52.502;13.426;2022-07-29T00:01:47;3.67;;;2.15;;
56927;SDS011;60850;52.502;13.426;2022-07-29T00:04:14;3.30;;;2.20;;
56927;SDS011;60850;52.502;13.426;2022-07-29T00:06:41;4.20;;;2.30;;
56927;SDS011;60850;52.502;13.426;2022-07-29T00:09:08;4.75;;;2.40;;
56927;SDS011;60850;52.502;13.426;2022-07-29T00:11:35;4.78;;;2.17;;
56927;SDS011;60850;52.502;13.426;2022-07-29T00:14:05;8.75;;;2.97;;
56927;SDS011;60850;52.502;13.426;2022-07-29T00:16:32;7.82;;;2.60;;
56927;SDS011;60850;52.502;13.426;2022-07-29T00:18:59;6.38;;;2.97;;
56927;SDS011;60850;52.502;13.426;2022-07-29T00:21:26;4.90;;;2.40;;
56927;SDS011;60850;52.502;13.426;2022-07-29T00:23:53;6.68;;;2.60;;
56927;SDS011;60850;52.502;13.426;2022-07-29T00:26:19;4.30;;;2.33;;
56927;SDS011;60850;52.502;13.426;2022-07-29T00:28:46;4.50;;;2.50;;
56927;SDS011;60850;52.502;13.426;2022-07-29T00:31:14;4.57;;;2.40;;
56927;SDS011;60850;52.502;13.426;2022-07-29T00:33:41;7.25;;;3.08;;
56927;SDS011;60850;52.502;13.426;2022-07-29T00:36:08;7.18;;;2.83;;
56927;SDS011;60850;52.502;13.426;2022-07-29T00:38:34;5.60;;;3.40;;
56927;SDS011;60850;52.502;13.426;2022-07-29T00:41:01;4.78;;;2.58;;
56927;SDS011;60850;52.502;13.426;2022-07-29T00:43:28;5.97;;;2.67;;
56927;SDS011;60850;52.502;13.426;2022-07-29T00:45:54;5.93;;;3.17;;
56927;SDS011;60850;52.502;13.426;2022-07-29T00:48:23;5.03;;;2.75;;
56927;SDS011;60850;52.502;13.426;2022-07-29T00:50:49;7.57;;;3.10;;
56927;SDS011;60850;52.502;13.426;2022-07-29T00:53:16;7.47;;;2.90;;
56927;SDS011;60850;52.502;13.426;2022-07-29T00:55:43;5.85;;;2.70;;
56927;SDS011;60850;52.502;13.426;2022-07-29T00:58:11;5.47;;;2.90;;
56927;SDS011;60850;52.502;13.426;2022-07-29T01:00:39;13.70;;;3.20;;
56927;SDS011;60850;52.502;13.426;2022-07-29T01:03:06;9.68;;;2.75;;
56927;SDS011;60850;52.502;13.426;2022-07-29T01:05:35;6.88;;;3.00;;
56927;SDS011;60850;52.502;13.426;2022-07-29T01:08:02;4.50;;;2.58;;
56927;SDS011;60850;52.502;13.426;2022-07-29T01:10:29;4.65;;;2.72;;
56927;SDS011;60850;52.502;13.426;2022-07-29T01:12:57;7.82;;;2.88;;
56927;SDS011;60850;52.502;13.426;2022-07-29T01:15:25;6.43;;;2.65;;
56927;SDS011;60850;52.502;13.426;2022-07-29T01:17:54;5.00;;;2.47;;
56927;SDS011;60850;52.502;13.426;2022-07-29T01:20:30;4.93;;;2.83;;
56927;SDS011;60850;52.502;13.426;2022-07-29T01:23:25;4.72;;;2.55;;
56927;SDS011;60850;52.502;13.426;2022-07-29T01:26:22;6.28;;;2.58;;
56927;SDS011;60850;52.502;13.426;2022-07-29T01:29:09;6.35;;;2.55;;
56927;SDS011;60850;52.502;13.426;2022-07-29T01:31:42;5.43;;;2.65;;
56927;SDS011;60850;52.502;13.426;2022-07-29T01:34:13;8.43;;;2.58;;
56927;SDS011;60850;52.502;13.426;2022-07-29T01:36:48;3.95;;;2.65;;
56927;SDS011;60850;52.502;13.426;2022-07-29T01:39:22;8.20;;;2.65;;
56927;SDS011;60850;52.502;13.426;2022-07-29T01:41:55;4.22;;;2.28;;
56927;SDS011;60850;52.502;13.426;2022-07-29T01:44:26;7.32;;;2.58;;
56927;SDS011;60850;52.502;13.426;2022-07-29T01:46:58;7.20;;;2.75;;
56927;SDS011;60850;52.502;13.426;2022-07-29T01:49:27;5.38;;;2.60;;
56927;SDS011;60850;52.502;13.426;2022-07-29T01:51:57;8.20;;;3.03;;
56927;SDS011;60850;52.502;13.426;2022-07-29T01:54:29;4.63;;;2.70;;
56927;SDS011;60850;52.502;13.426;2022-07-29T01:57:00;5.88;;;2.47;;
56927;SDS011;60850;52.502;13.426;2022-07-29T01:59:31;7.38;;;3.35;;
56927;SDS011;60850;52.502;13.426;2022-07-29T02:02:01;7.35;;;2.70;;
56927;SDS011;60850;52.502;13.426;2022-07-29T02:04:28;7.93;;;3.08;;
56927;SDS011;60850;52.502;13.426;2022-07-29T02:06:58;6.60;;;2.55;;
56927;SDS011;60850;52.502;13.426;2022-07-29T02:09:28;4.88;;;2.60;;
56927;SDS011;60850;52.502;13.426;2022-07-29T02:11:56;5.78;;;2.55;;
56927;SDS011;60850;52.502;13.426;2022-07-29T02:14:26;8.35;;;3.20;;
56927;SDS011;60850;52.502;13.426;2022-07-29T02:16:59;5.05;;;2.75;;
56927;SDS011;60850;52.502;13.426;2022-07-29T02:19:29;5.13;;;2.60;;
56927;SDS011;60850;52.502;13.426;2022-07-29T02:21:58;4.28;;;2.25;;
56927;SDS011;60850;52.502;13.426;2022-07-29T02:24:26;5.65;;;2.67;;
56927;SDS011;60850;52.502;13.426;2022-07-29T02:26:56;7.45;;;3.20;;
56927;SDS011;60850;52.502;13.426;2022-07-29T02:29:25;7.20;;;2.92;;
56927;SDS011;60850;52.502;13.426;2022-07-29T02:31:54;3.42;;;2.22;;
56927;SDS011;60850;52.502;13.426;2022-07-29T02:34:25;7.47;;;2.67;;
56927;SDS011;60850;52.502;13.426;2022-07-29T02:36:53;5.18;;;2.70;;
56927;SDS011;60850;52.502;13.426;2022-07-29T02:39:21;5.90;;;2.50;;
56927;SDS011;60850;52.502;13.426;2022-07-29T02:41:51;6.85;;;2.80;;
56927;SDS011;60850;52.502;13.426;2022-07-29T02:44:23;5.15;;;2.70;;
56927;SDS011;60850;52.502;13.426;2022-07-29T02:46:53;5.45;;;2.42;;
56927;SDS011;60850;52.502;13.426;2022-07-29T02:49:31;4.32;;;2.63;;
56927;SDS011;60850;52.502;13.426;2022-07-29T02:52:05;3.55;;;2.00;;
56927;SDS011;60850;52.502;13.426;2022-07-29T02:54:37;4.50;;;2.40;;
56927;SDS011;60850;52.502;13.426;2022-07-29T02:57:09;5.50;;;3.13;;
56927;SDS011;60850;52.502;13.426;2022-07-29T02:59:42;3.83;;;2.40;;
56927;SDS011;60850;52.502;13.426;2022-07-29T03:02:12;6.78;;;2.70;;
56927;SDS011;60850;52.502;13.426;2022-07-29T03:04:42;7.85;;;2.63;;
56927;SDS011;60850;52.502;13.426;2022-07-29T03:07:10;3.95;;;2.30;;
56927;SDS011;60850;52.502;13.426;2022-07-29T03:09:40;6.53;;;2.72;;
56927;SDS011;60850;52.502;13.426;2022-07-29T03:12:08;4.53;;;2.28;;
56927;SDS011;60850;52.502;13.426;2022-07-29T03:14:37;4.38;;;2.60;;
56927;SDS011;60850;52.502;13.426;2022-07-29T03:17:05;8.73;;;3.50;;
56927;SDS011;60850;52.502;13.426;2022-07-29T03:19:32;5.40;;;2.70;;
56927;SDS011;60850;52.502;13.426;2022-07-29T03:22:01;4.00;;;2.35;;
56927;SDS011;60850;52.502;13.426;2022-07-29T03:24:29;5.55;;;2.65;;
56927;SDS011;60850;52.502;13.426;2022-07-29T03:26:57;6.60;;;2.40;;
56927;SDS011;60850;52.502;13.426;2022-07-29T03:29:24;6.18;;;2.55;;
56927;SDS011;60850;52.502;13.426;2022-07-29T03:31:52;5.75;;;2.70;;
56927;SDS011;60850;52.502;13.426;2022-07-29T03:34:19;6.05;;;2.30;;
56927;SDS011;60850;52.502;13.426;2022-07-29T03:36:46;6.80;;;2.70;;
56927;SDS011;60850;52.502;13.426;2022-07-29T03:39:16;6.47;;;3.00;;
56927;SDS011;60850;52.502;13.426;2022-07-29T03:41:45;5.43;;;2.80;;
56927;SDS011;60850;52.502;13.426;2022-07-29T03:44:15;5.10;;;2.60;;
56927;SDS011;60850;52.502;13.426;2022-07-29T03:46:44;14.55;;;3.55;;
56927;SDS011;60850;52.502;13.426;2022-07-29T03:49:14;4.85;;;2.92;;
56927;SDS011;60850;52.502;13.426;2022-07-29T03:51:43;7.72;;;4.35;;
56927;SDS011;60850;52.502;13.426;2022-07-29T03:54:10;5.43;;;2.60;;
56927;SDS011;60850;52.502;13.426;2022-07-29T03:56:39;5.60;;;2.40;;
56927;SDS011;60850;52.502;13.426;2022-07-29T03:59:11;3.85;;;2.40;;
56927;SDS011;60850;52.502;13.426;2022-07-29T04:01:39;6.22;;;2.53;;
56927;SDS011;60850;52.502;13.426;2022-07-29T04:04:07;8.25;;;3.05;;
56927;SDS011;60850;52.502;13.426;2022-07-29T04:06:38;3.78;;;2.20;;
56927;SDS011;60850;52.502;13.426;2022-07-29T04:09:06;3.47;;;2.15;;
56927;SDS011;60850;52.502;13.426;2022-07-29T04:11:33;5.55;;;2.70;;
56927;SDS011;60850;52.502;13.426;2022-07-29T04:14:02;5.25;;;2.65;;
56927;SDS011;60850;52.502;13.426;2022-07-29T04:16:29;4.28;;;2.47;;
56927;SDS011;60850;52.502;13.426;2022-07-29T04:18:55;5.65;;;2.80;;
56927;SDS011;60850;52.502;13.426;2022-07-29T04:21:22;5.57;;;2.45;;
56927;SDS011;60850;52.502;13.426;2022-07-29T04:23:50;9.32;;;2.20;;
56927;SDS011;60850;52.502;13.426;2022-07-29T04:26:17;4.55;;;2.50;;
56927;SDS011;60850;52.502;13.426;2022-07-29T04:28:44;5.10;;;2.67;;
56927;SDS011;60850;52.502;13.426;2022-07-29T04:31:12;7.05;;;2.50;;
56927;SDS011;60850;52.502;13.426;2022-07-29T04:33:39;3.95;;;2.35;;
56927;SDS011;60850;52.502;13.426;2022-07-29T04:36:06;5.30;;;2.25;;
56927;SDS011;60850;52.502;13.426;2022-07-29T04:38:33;5.05;;;2.80;;
56927;SDS011;60850;52.502;13.426;2022-07-29T04:41:00;5.95;;;2.83;;
56927;SDS011;60850;52.502;13.426;2022-07-29T04:43:27;6.13;;;2.42;;
56927;SDS011;60850;52.502;13.426;2022-07-29T04:45:54;5.55;;;2.88;;
56927;SDS011;60850;52.502;13.426;2022-07-29T04:48:22;5.55;;;2.45;;
56927;SDS011;60850;52.502;13.426;2022-07-29T04:50:49;7.15;;;2.50;;
56927;SDS011;60850;52.502;13.426;2022-07-29T04:53:16;5.78;;;3.00;;
56927;SDS011;60850;52.502;13.426;2022-07-29T04:55:43;5.32;;;2.40;;
56927;SDS011;60850;52.502;13.426;2022-07-29T04:58:10;5.55;;;2.47;;
56927;SDS011;60850;52.502;13.426;2022-07-29T05:00:37;2.80;;;2.10;;
56927;SDS011;60850;52.502;13.426;2022-07-29T05:03:05;6.53;;;2.42;;
56927;SDS011;60850;52.502;13.426;2022-07-29T05:05:33;6.10;;;2.53;;
56927;SDS011;60850;52.502;13.426;2022-07-29T05:08:00;6.93;;;2.30;;
56927;SDS011;60850;52.502;13.426;2022-07-29T05:10:27;5.53;;;2.30;;
56927;SDS011;60850;52.502;13.426;2022-07-29T05:12:54;9.43;;;2.53;;
56927;SDS011;60850;52.502;13.426;2022-07-29T05:15:21;6.82;;;2.47;;
56927;SDS011;60850;52.502;13.426;2022-07-29T05:17:47;6.47;;;2.75;;
56927;SDS011;60850;52.502;13.426;2022-07-29T05:20:14;9.18;;;3.83;;
56927;SDS011;60850;52.502;13.426;2022-07-29T05:22:42;5.82;;;2.17;;
56927;SDS011;60850;52.502;13.426;2022-07-29T05:25:09;4.57;;;3.15;;
56927;SDS011;60850;52.502;13.426;2022-07-29T05:27:36;8.40;;;2.53;;
56927;SDS011;60850;52.502;13.426;2022-07-29T05:30:03;7.32;;;2.38;;
56927;SDS011;60850;52.502;13.426;2022-07-29T05:32:30;4.75;;;2.17;;
56927;SDS011;60850;52.502;13.426;2022-07-29T05:34:57;5.50;;;2.30;;
56927;SDS011;60850;52.502;13.426;2022-07-29T05:37:24;6.32;;;2.10;;
56927;SDS011;60850;52.502;13.426;2022-07-29T05:39:52;6.28;;;2.47;;
56927;SDS011;60850;52.502;13.426;2022-07-29T05:42:19;6.30;;;2.45;;
56927;SDS011;60850;52.502;13.426;2022-07-29T05:44:46;5.30;;;2.38;;
56927;SDS011;60850;52.502;13.426;2022-07-29T05:47:13;6.20;;;3.00;;
56927;SDS011;60850;52.502;13.426;2022-07-29T05:49:41;7.22;;;3.05;;
56927;SDS011;60850;52.502;13.426;2022-07-29T05:52:08;8.82;;;2.40;;
56927;SDS011;60850;52.502;13.426;2022-07-29T05:54:35;6.15;;;2.40;;
56927;SDS011;60850;52.502;13.426;2022-07-29T05:57:03;5.95;;;2.30;;
56927;SDS011;60850;52.502;13.426;2022-07-29T05:59:30;10.45;;;2.78;;
56927;SDS011;60850;52.502;13.426;2022-07-29T06:01:57;5.70;;;2.30;;
56927;SDS011;60850;52.502;13.426;2022-07-29T06:04:24;4.40;;;2.35;;
56927;SDS011;60850;52.502;13.426;2022-07-29T06:06:51;5.10;;;1.90;;
56927;SDS011;60850;52.502;13.426;2022-07-29T06:09:18;5.63;;;2.08;;
56927;SDS011;60850;52.502;13.426;2022-07-29T06:11:45;6.70;;;2.33;;
56927;SDS011;60850;52.502;13.426;2022-07-29T06:14:13;6.68;;;2.10;;
56927;SDS011;60850;52.502;13.426;2022-07-29T06:16:40;6.63;;;2.30;;
56927;SDS011;60850;52.502;13.426;2022-07-29T06:19:07;3.25;;;2.10;;
56927;SDS011;60850;52.502;13.426;2022-07-29T06:21:34;3.60;;;2.08;;
56927;SDS011;60850;52.502;13.426;2022-07-29T06:24:01;5.60;;;2.13;;
56927;SDS011;60850;52.502;13.426;2022-07-29T06:26:28;7.22;;;2.58;;
56927;SDS011;60850;52.502;13.426;2022-07-29T06:28:55;3.25;;;1.85;;
56927;SDS011;60850;52.502;13.426;2022-07-29T06:31:23;7.65;;;2.60;;
56927;SDS011;60850;52.502;13.426;2022-07-29T06:33:50;6.45;;;2.00;;
56927;SDS011;60850;52.502;13.426;2022-07-29T06:36:18;4.93;;;2.20;;
56927;SDS011;60850;52.502;13.426;2022-07-29T06:38:44;3.25;;;1.98;;
56927;SDS011;60850;52.502;13.426;2022-07-29T06:41:11;6.22;;;1.90;;
56927;SDS011;60850;52.502;13.426;2022-07-29T06:43:41;7.88;;;2.20;;
56927;SDS011;60850;52.502;13.426;2022-07-29T06:46:10;5.90;;;2.30;;
56927;SDS011;60850;52.502;13.426;2022-07-29T06:48:40;4.55;;;2.00;;
56927;SDS011;60850;52.502;13.426;2022-07-29T06:51:08;7.95;;;2.22;;
56927;SDS011;60850;52.502;13.426;2022-07-29T06:53:36;5.60;;;2.13;;
56927;SDS011;60850;52.502;13.426;2022-07-29T06:56:04;6.25;;;2.25;;
56927;SDS011;60850;52.502;13.426;2022-07-29T06:58:33;8.65;;;2.35;;
56927;SDS011;60850;52.502;13.426;2022-07-29T07:01:01;3.45;;;1.90;;
56927;SDS011;60850;52.502;13.426;2022-07-29T07:03:30;6.55;;;2.13;;
56927;SDS011;60850;52.502;13.426;2022-07-29T07:05:58;4.55;;;2.17;;
56927;SDS011;60850;52.502;13.426;2022-07-29T07:08:25;7.85;;;2.45;;
56927;SDS011;60850;52.502;13.426;2022-07-29T07:10:52;5.10;;;2.55;;
56927;SDS011;60850;52.502;13.426;2022-07-29T07:13:20;9.15;;;2.25;;
56927;SDS011;60850;52.502;13.426;2022-07-29T07:15:46;7.20;;;2.15;;
56927;SDS011;60850;52.502;13.426;2022-07-29T07:18:14;6.38;;;2.47;;
56927;SDS011;60850;52.502;13.426;2022-07-29T07:20:41;10.02;;;2.00;;
56927;SDS011;60850;52.502;13.426;2022-07-29T07:23:10;4.97;;;1.88;;
56927;SDS011;60850;52.502;13.426;2022-07-29T07:25:37;4.50;;;2.10;;
56927;SDS011;60850;52.502;13.426;2022-07-29T07:28:03;6.50;;;1.88;;
56927;SDS011;60850;52.502;13.426;2022-07-29T07:30:30;5.22;;;2.22;;
56927;SDS011;60850;52.502;13.426;2022-07-29T07:32:57;4.53;;;1.92;;
56927;SDS011;60850;52.502;13.426;2022-07-29T07:35:25;4.93;;;2.42;;
56927;SDS011;60850;52.502;13.426;2022-07-29T07:37:52;4.15;;;2.30;;
56927;SDS011;60850;52.502;13.426;2022-07-29T07:40:21;5.88;;;2.10;;
56927;SDS011;60850;52.502;13.426;2022-07-29T07:42:48;4.63;;;1.85;;
56927;SDS011;60850;52.502;13.426;2022-07-29T07:45:14;5.72;;;1.67;;
56927;SDS011;60850;52.502;13.426;2022-07-29T07:47:42;4.10;;;1.77;;
56927;SDS011;60850;52.502;13.426;2022-07-29T07:50:10;7.18;;;1.65;;
56927;SDS011;60850;52.502;13.426;2022-07-29T07:52:45;5.38;;;1.63;;
56927;SDS011;60850;52.502;13.426;2022-07-29T07:55:14;11.07;;;2.13;;
56927;SDS011;60850;52.502;13.426;2022-07-29T07:57:42;3.42;;;1.35;;
56927;SDS011;60850;52.502;13.426;2022-07-29T08:00:09;6.22;;;1.70;;
56927;SDS011;60850;52.502;13.426;2022-07-29T08:02:38;5.05;;;1.60;;
56927;SDS011;60850;52.502;13.426;2022-07-29T08:05:06;3.80;;;1.58;;
56927;SDS011;60850;52.502;13.426;2022-07-29T08:07:33;6.75;;;1.73;;
56927;SDS011;60850;52.502;13.426;2022-07-29T08:10:01;7.53;;;2.35;;
56927;SDS011;60850;52.502;13.426;2022-07-29T08:12:28;6.95;;;1.70;;
56927;SDS011;60850;52.502;13.426;2022-07-29T08:14:56;3.88;;;1.40;;
56927;SDS011;60850;52.502;13.426;2022-07-29T08:17:23;5.13;;;1.88;;
56927;SDS011;60850;52.502;13.426;2022-07-29T08:19:49;5.82;;;1.50;;
56927;SDS011;60850;52.502;13.426;2022-07-29T08:22:16;4.18;;;1.60;;
56927;SDS011;60850;52.502;13.426;2022-07-29T08:24:43;4.03;;;1.70;;
56927;SDS011;60850;52.502;13.426;2022-07-29T08:27:17;2.78;;;1.67;;
56927;SDS011;60850;52.502;13.426;2022-07-29T08:29:45;2.15;;;1.25;;
56927;SDS011;60850;52.502;13.426;2022-07-29T08:32:14;3.88;;;1.67;;
56927;SDS011;60850;52.502;13.426;2022-07-29T08:34:40;2.40;;;1.30;;
56927;SDS011;60850;52.502;13.426;2022-07-29T08:37:09;3.30;;;1.67;;
56927;SDS011;60850;52.502;13.426;2022-07-29T08:39:36;6.97;;;1.58;;
56927;SDS011;60850;52.502;13.426;2022-07-29T08:42:03;4.45;;;1.67;;
56927;SDS011;60850;52.502;13.426;2022-07-29T08:44:31;5.35;;;1.45;;
56927;SDS011;60850;52.502;13.426;2022-07-29T08:46:59;4.13;;;1.45;;
56927;SDS011;60850;52.502;13.426;2022-07-29T08:49:27;3.60;;;1.73;;
56927;SDS011;60850;52.502;13.426;2022-07-29T08:51:54;5.90;;;1.58;;
56927;SDS011;60850;52.502;13.426;2022-07-29T08:54:23;3.75;;;1.35;;
56927;SDS011;60850;52.502;13.426;2022-07-29T08:56:50;3.10;;;1.67;;
56927;SDS011;60850;52.502;13.426;2022-07-29T08:59:18;5.35;;;1.50;;
56927;SDS011;60850;52.502;13.426;2022-07-29T09:01:46;5.70;;;1.58;;
56927;SDS011;60850;52.502;13.426;2022-07-29T09:04:14;8.25;;;1.75;;
56927;SDS011;60850;52.502;13.426;2022-07-29T09:06:45;5.45;;;1.70;;
56927;SDS011;60850;52.502;13.426;2022-07-29T09:09:13;3.58;;;1.55;;
56927;SDS011;60850;52.502;13.426;2022-07-29T09:11:41;2.08;;;1.30;;
56927;SDS011;60850;52.502;13.426;2022-07-29T09:14:10;5.65;;;1.70;;
56927;SDS011;60850;52.502;13.426;2022-07-29T09:16:44;3.50;;;1.85;;
56927;SDS011;60850;52.502;13.426;2022-07-29T09:19:19;7.28;;;1.38;;
56927;SDS011;60850;52.502;13.426;2022-07-29T09:21:48;5.95;;;1.85;;
56927;SDS011;60850;52.502;13.426;2022-07-29T09:24:24;5.30;;;1.60;;
56927;SDS011;60850;52.502;13.426;2022-07-29T09:26:53;5.47;;;1.50;;
56927;SDS011;60850;52.502;13.426;2022-07-29T09:29:21;8.90;;;1.88;;
56927;SDS011;60850;52.502;13.426;2022-07-29T09:31:50;4.18;;;1.60;;
56927;SDS011;60850;52.502;13.426;2022-07-29T09:34:21;4.03;;;1.58;;
56927;SDS011;60850;52.502;13.426;2022-07-29T09:36:50;5.45;;;1.70;;
56927;SDS011;60850;52.502;13.426;2022-07-29T09:39:28;6.03;;;1.45;;
56927;SDS011;60850;52.502;13.426;2022-07-29T09:41:56;3.33;;;1.60;;
56927;SDS011;60850;52.502;13.426;2022-07-29T09:44:25;3.30;;;1.38;;
56927;SDS011;60850;52.502;13.426;2022-07-29T09:47:01;5.35;;;1.55;;
56927;SDS011;60850;52.502;13.426;2022-07-29T09:49:32;1.88;;;1.60;;
56927;SDS011;60850;52.502;13.426;2022-07-29T09:52:04;3.65;;;1.25;;
56927;SDS011;60850;52.502;13.426;2022-07-29T09:54:32;5.60;;;1.75;;
56927;SDS011;60850;52.502;13.426;2022-07-29T09:57:02;4.82;;;1.88;;
56927;SDS011;60850;52.502;13.426;2022-07-29T09:59:30;3.67;;;1.80;;
56927;SDS011;60850;52.502;13.426;2022-07-29T10:01:57;5.63;;;1.70;;
56927;SDS011;60850;52.502;13.426;2022-07-29T10:04:28;7.22;;;1.45;;
56927;SDS011;60850;52.502;13.426;2022-07-29T10:07:04;2.70;;;1.48;;
56927;SDS011;60850;52.502;13.426;2022-07-29T10:09:31;5.32;;;1.60;;
56927;SDS011;60850;52.502;13.426;2022-07-29T10:12:03;5.03;;;1.35;;
56927;SDS011;60850;52.502;13.426;2022-07-29T10:14:31;4.35;;;1.40;;
56927;SDS011;60850;52.502;13.426;2022-07-29T10:16:59;2.75;;;1.05;;
56927;SDS011;60850;52.502;13.426;2022-07-29T10:19:26;2.70;;;1.35;;
56927;SDS011;60850;52.502;13.426;2022-07-29T10:21:55;3.75;;;1.30;;
56927;SDS011;60850;52.502;13.426;2022-07-29T10:24:24;3.15;;;1.17;;
56927;SDS011;60850;52.502;13.426;2022-07-29T10:26:53;4.70;;;1.17;;
56927;SDS011;60850;52.502;13.426;2022-07-29T10:29:21;3.40;;;1.10;;
56927;SDS011;60850;52.502;13.426;2022-07-29T10:31:49;2.40;;;1.13;;
56927;SDS011;60850;52.502;13.426;2022-07-29T10:34:27;3.13;;;1.30;;
56927;SDS011;60850;52.502;13.426;2022-07-29T10:37:03;3.70;;;1.20;;
56927;SDS011;60850;52.502;13.426;2022-07-29T10:39:47;3.20;;;1.50;;
56927;SDS011;60850;52.502;13.426;2022-07-29T10:42:22;4.80;;;1.50;;
56927;SDS011;60850;52.502;13.426;2022-07-29T10:44:51;2.28;;;1.10;;
56927;SDS011;60850;52.502;13.426;2022-07-29T10:47:19;3.40;;;1.23;;
56927;SDS011;60850;52.502;13.426;2022-07-29T10:49:54;2.65;;;1.30;;
56927;SDS011;60850;52.502;13.426;2022-07-29T10:52:22;3.17;;;1.35;;
56927;SDS011;60850;52.502;13.426;2022-07-29T10:54:54;5.22;;;1.70;;
56927;SDS011;60850;52.502;13.426;2022-07-29T10:57:24;3.30;;;1.30;;
56927;SDS011;60850;52.502;13.426;2022-07-29T11:02:57;5.25;;;1.17;;
56927;SDS011;60850;52.502;13.426;2022-07-29T11:05:26;2.97;;;1.40;;
56927;SDS011;60850;52.502;13.426;2022-07-29T11:10:50;3.42;;;1.33;;
56927;SDS011;60850;52.502;13.426;2022-07-29T11:16:13;4.78;;;1.60;;
56927;SDS011;60850;52.502;13.426;2022-07-29T11:21:47;3.38;;;1.25;;
56927;SDS011;60850;52.502;13.426;2022-07-29T11:24:15;4.25;;;1.30;;
56927;SDS011;60850;52.502;13.426;2022-07-29T11:26:45;4.38;;;2.78;;
56927;SDS011;60850;52.502;13.426;2022-07-29T11:29:33;4.85;;;1.85;;
56927;SDS011;60850;52.502;13.426;2022-07-29T11:32:07;5.03;;;1.63;;
56927;SDS011;60850;52.502;13.426;2022-07-29T11:34:36;5.32;;;1.83;;
56927;SDS011;60850;52.502;13.426;2022-07-29T11:37:21;4.43;;;1.63;;
56927;SDS011;60850;52.502;13.426;2022-07-29T11:42:43;2.50;;;1.38;;
56927;SDS011;60850;52.502;13.426;2022-07-29T11:45:12;4.97;;;1.60;;
56927;SDS011;60850;52.502;13.426;2022-07-29T11:47:47;5.35;;;1.80;;
56927;SDS011;60850;52.502;13.426;2022-07-29T11:50:16;4.93;;;1.80;;
56927;SDS011;60850;52.502;13.426;2022-07-29T11:52:45;3.13;;;1.70;;
56927;SDS011;60850;52.502;13.426;2022-07-29T11:55:14;7.30;;;1.92;;
56927;SDS011;60850;52.502;13.426;2022-07-29T11:57:47;3.53;;;1.60;;
56927;SDS011;60850;52.502;13.426;2022-07-29T12:00:25;3.22;;;1.73;;
56927;SDS011;60850;52.502;13.426;2022-07-29T12:02:55;7.03;;;1.75;;
56927;SDS011;60850;52.502;13.426;2022-07-29T12:05:30;2.70;;;1.48;;
56927;SDS011;60850;52.502;13.426;2022-07-29T12:08:09;2.23;;;1.50;;
56927;SDS011;60850;52.502;13.426;2022-07-29T12:10:38;2.50;;;2.15;;
56927;SDS011;60850;52.502;13.426;2022-07-29T12:13:07;6.07;;;2.13;;
56927;SDS011;60850;52.502;13.426;2022-07-29T12:15:35;4.68;;;1.90;;
56927;SDS011;60850;52.502;13.426;2022-07-29T12:18:09;5.10;;;2.10;;
56927;SDS011;60850;52.502;13.426;2022-07-29T12:20:37;12.05;;;2.65;;
56927;SDS011;60850;52.502;13.426;2022-07-29T12:23:05;4.85;;;2.00;;
56927;SDS011;60850;52.502;13.426;2022-07-29T12:25:34;6.10;;;2.85;;
56927;SDS011;60850;52.502;13.426;2022-07-29T12:28:03;4.75;;;2.00;;
56927;SDS011;60850;52.502;13.426;2022-07-29T12:30:43;5.60;;;2.40;;
56927;SDS011;60850;52.502;13.426;2022-07-29T12:33:12;6.40;;;2.00;;
56927;SDS011;60850;52.502;13.426;2022-07-29T12:35:44;3.58;;;1.90;;
56927;SDS011;60850;52.502;13.426;2022-07-29T12:38:12;4.35;;;2.00;;
56927;SDS011;60850;52.502;13.426;2022-07-29T12:40:39;6.55;;;2.25;;
56927;SDS011;60850;52.502;13.426;2022-07-29T12:43:07;3.08;;;2.08;;
56927;SDS011;60850;52.502;13.426;2022-07-29T12:45:35;3.80;;;2.55;;
56927;SDS011;60850;52.502;13.426;2022-07-29T12:48:05;5.13;;;2.17;;
56927;SDS011;60850;52.502;13.426;2022-07-29T12:50:34;3.05;;;2.08;;
56927;SDS011;60850;52.502;13.426;2022-07-29T12:53:08;4.28;;;2.30;;
56927;SDS011;60850;52.502;13.426;2022-07-29T12:55:43;5.07;;;2.55;;
56927;SDS011;60850;52.502;13.426;2022-07-29T12:58:14;3.30;;;2.22;;
56927;SDS011;60850;52.502;13.426;2022-07-29T13:00:59;6.30;;;2.33;;
56927;SDS011;60850;52.502;13.426;2022-07-29T13:06:31;4.90;;;2.30;;
56927;SDS011;60850;52.502;13.426;2022-07-29T13:09:00;7.53;;;3.15;;
56927;SDS011;60850;52.502;13.426;2022-07-29T13:11:30;6.05;;;2.80;;
56927;SDS011;60850;52.502;13.426;2022-07-29T13:13:57;5.43;;;2.53;;
56927;SDS011;60850;52.502;13.426;2022-07-29T13:16:24;4.15;;;2.38;;
56927;SDS011;60850;52.502;13.426;2022-07-29T13:19:04;3.35;;;2.15;;
56927;SDS011;60850;52.502;13.426;2022-07-29T13:21:38;4.50;;;2.20;;
56927;SDS011;60850;52.502;13.426;2022-07-29T13:24:06;4.82;;;2.40;;
56927;SDS011;60850;52.502;13.426;2022-07-29T13:26:34;5.07;;;2.22;;
56927;SDS011;60850;52.502;13.426;2022-07-29T13:29:01;5.10;;;2.58;;
56927;SDS011;60850;52.502;13.426;2022-07-29T13:31:29;4.60;;;2.20;;
56927;SDS011;60850;52.502;13.426;2022-07-29T13:33:56;3.13;;;2.03;;
56927;SDS011;60850;52.502;13.426;2022-07-29T13:36:25;5.90;;;2.10;;
56927;SDS011;60850;52.502;13.426;2022-07-29T13:38:52;4.18;;;2.15;;
56927;SDS011;60850;52.502;13.426;2022-07-29T13:41:19;4.15;;;2.30;;
56927;SDS011;60850;52.502;13.426;2022-07-29T13:43:46;6.07;;;2.72;;
56927;SDS011;60850;52.502;13.426;2022-07-29T13:46:12;5.63;;;2.22;;
56927;SDS011;60850;52.502;13.426;2022-07-29T13:48:39;7.22;;;2.40;;
56927;SDS011;60850;52.502;13.426;2022-07-29T13:51:06;4.30;;;2.88;;
56927;SDS011;60850;52.502;13.426;2022-07-29T13:53:34;7.35;;;3.10;;
56927;SDS011;60850;52.502;13.426;2022-07-29T13:56:01;3.47;;;2.40;;
56927;SDS011;60850;52.502;13.426;2022-07-29T13:58:31;5.80;;;2.80;;
56927;SDS011;60850;52.502;13.426;2022-07-29T14:00:58;5.63;;;2.50;;
56927;SDS011;60850;52.502;13.426;2022-07-29T14:03:24;5.82;;;2.50;;
56927;SDS011;60850;52.502;13.426;2022-07-29T14:05:51;4.63;;;2.40;;
56927;SDS011;60850;52.502;13.426;2022-07-29T14:08:18;4.20;;;2.47;;
56927;SDS011;60850;52.502;13.426;2022-07-29T14:10:46;6.95;;;2.60;;
56927;SDS011;60850;52.502;13.426;2022-07-29T14:13:13;4.60;;;2.50;;
56927;SDS011;60850;52.502;13.426;2022-07-29T14:15:40;5.00;;;2.53;;
56927;SDS011;60850;52.502;13.426;2022-07-29T14:18:07;2.80;;;2.50;;
56927;SDS011;60850;52.502;13.426;2022-07-29T14:20:34;2.90;;;2.22;;
56927;SDS011;60850;52.502;13.426;2022-07-29T14:23:00;5.13;;;2.55;;
56927;SDS011;60850;52.502;13.426;2022-07-29T14:25:27;5.82;;;2.60;;
56927;SDS011;60850;52.502;13.426;2022-07-29T14:27:55;6.60;;;2.30;;
56927;SDS011;60850;52.502;13.426;2022-07-29T14:30:24;4.18;;;2.58;;
56927;SDS011;60850;52.502;13.426;2022-07-29T14:32:50;4.65;;;2.30;;
56927;SDS011;60850;52.502;13.426;2022-07-29T14:35:17;2.70;;;2.45;;
56927;SDS011;60850;52.502;13.426;2022-07-29T14:37:44;5.00;;;2.60;;
56927;SDS011;60850;52.502;13.426;2022-07-29T14:40:11;5.07;;;2.40;;
56927;SDS011;60850;52.502;13.426;2022-07-29T14:42:38;3.72;;;2.65;;
56927;SDS011;60850;52.502;13.426;2022-07-29T14:45:07;3.40;;;2.30;;
56927;SDS011;60850;52.502;13.426;2022-07-29T14:47:35;3.67;;;2.20;;
56927;SDS011;60850;52.502;13.426;2022-07-29T14:50:03;3.80;;;2.60;;
56927;SDS011;60850;52.502;13.426;2022-07-29T14:52:32;4.07;;;2.50;;
56927;SDS011;60850;52.502;13.426;2022-07-29T14:54:58;4.28;;;2.80;;
56927;SDS011;60850;52.502;13.426;2022-07-29T14:57:25;3.63;;;2.38;;
56927;SDS011;60850;52.502;13.426;2022-07-29T14:59:52;3.50;;;2.28;;
56927;SDS011;60850;52.502;13.426;2022-07-29T15:02:21;5.03;;;2.47;;